Time;durP1;ratioP1;P1;durP2;ratioP2;P2;SDS_P1;SDS_P2;PMS_P1;PMS_P2;Temp;Humidity;BMP_temperature;BMP_pressure;BME280_temperature;BME280_humidity;BME280_pressure;Samples;Min_cycle;Max_cycle;Signal;HPM_P1;HPM_P2
2022/08/21 00:00:31;;;;;;;13.90;6.72;;;18.00;99.90;;;;;;3058522;19;20493;-74
2022/08/21 00:01:32;;;;;;;13.07;6.20;;;17.80;99.90;;;;;;3058607;19;20019;-74
2022/08/21 00:02:36;;;;;;;14.68;6.50;;;17.90;99.90;;;;;;3058503;19;20488;-74
2022/08/21 00:03:38;;;;;;;16.45;7.15;;;17.80;99.90;;;;;;3058400;19;20035;-74
2022/08/21 00:04:42;;;;;;;14.75;6.70;;;17.90;99.90;;;;;;3058632;19;20502;-74
2022/08/21 00:05:46;;;;;;;14.25;5.90;;;17.90;99.90;;;;;;3058554;19;20361;-74
2022/08/21 00:06:50;;;;;;;15.57;6.47;;;18.00;99.90;;;;;;3058450;19;20495;-74
2022/08/21 00:07:52;;;;;;;11.52;6.40;;;17.90;99.90;;;;;;3058641;19;20014;-74
2022/08/21 00:08:58;;;;;;;18.35;6.68;;;18.00;99.90;;;;;;3058429;19;20011;-73
2022/08/21 00:09:59;;;;;;;11.45;6.43;;;18.00;99.90;;;;;;3057718;19;20014;-74
2022/08/21 00:11:05;;;;;;;12.27;5.85;;;17.80;99.90;;;;;;3057677;19;20010;-74
2022/08/21 00:12:07;;;;;;;11.02;5.82;;;17.80;99.90;;;;;;3058619;19;20017;-74
2022/08/21 00:13:11;;;;;;;10.30;6.30;;;18.00;99.90;;;;;;3058470;19;20029;-74
2022/08/21 00:14:12;;;;;;;9.20;5.75;;;17.90;99.90;;;;;;3058049;19;20372;-74
2022/08/21 00:15:20;;;;;;;10.65;5.57;;;17.80;99.90;;;;;;3058533;19;20014;-74
2022/08/21 00:16:22;;;;;;;10.18;6.32;;;17.90;99.90;;;;;;3058367;19;20341;-73
2022/08/21 00:17:26;;;;;;;13.25;6.50;;;17.80;99.90;;;;;;3058077;19;20483;-74
2022/08/21 00:18:27;;;;;;;11.75;6.38;;;17.80;99.90;;;;;;3058587;19;20017;-74
2022/08/21 00:19:32;;;;;;;10.38;6.07;;;17.90;99.90;;;;;;3057918;19;20028;-74
2022/08/21 00:20:34;;;;;;;11.38;6.20;;;17.70;99.90;;;;;;3058461;19;20006;-74
2022/08/21 00:21:38;;;;;;;16.45;6.78;;;17.70;99.90;;;;;;3058363;19;20401;-74
2022/08/21 00:22:40;;;;;;;14.05;7.22;;;17.80;99.90;;;;;;3058470;19;20002;-74
2022/08/21 00:23:44;;;;;;;;;;;17.70;99.90;;;;;;3058899;19;20006;-74
2022/08/21 00:24:47;;;;;;;12.80;6.07;;;17.70;99.90;;;;;;3058476;19;19925;-74
2022/08/21 00:25:52;;;;;;;12.85;6.68;;;17.60;99.90;;;;;;3058433;19;20018;-74
2022/08/21 00:26:53;;;;;;;13.05;6.88;;;17.80;99.90;;;;;;3058057;19;20014;-74
2022/08/21 00:27:58;;;;;;;13.50;6.93;;;17.70;99.90;;;;;;3058203;19;20003;-74
2022/08/21 00:28:59;;;;;;;14.85;6.90;;;17.60;99.90;;;;;;3058573;19;20354;-73
2022/08/21 00:30:03;;;;;;;12.80;6.72;;;17.50;99.90;;;;;;3058479;19;20012;-74
2022/08/21 00:31:05;;;;;;;11.73;7.03;;;17.40;99.90;;;;;;3058584;19;20006;-75
2022/08/21 00:32:09;;;;;;;23.88;7.15;;;17.70;99.90;;;;;;3058716;19;20358;-74
2022/08/21 00:33:11;;;;;;;9.75;6.65;;;17.70;99.90;;;;;;3058773;19;20014;-74
2022/08/21 00:34:15;;;;;;;14.90;7.03;;;17.60;99.90;;;;;;3059495;19;20020;-74
2022/08/21 00:35:19;;;;;;;12.82;6.18;;;17.60;99.90;;;;;;3059163;19;20476;-75
2022/08/21 00:36:23;;;;;;;14.57;6.32;;;17.60;99.90;;;;;;3061978;19;19999;-74
2022/08/21 00:37:25;;;;;;;12.68;6.72;;;17.60;99.90;;;;;;3061509;19;20024;-74
2022/08/21 00:38:29;;;;;;;12.13;7.07;;;17.50;99.90;;;;;;3058738;19;20023;-74
2022/08/21 00:39:30;;;;;;;14.75;6.63;;;17.60;99.90;;;;;;3058659;19;20002;-74
2022/08/21 00:40:39;;;;;;;12.10;6.47;;;17.60;99.90;;;;;;3059069;19;20040;-74
2022/08/21 00:41:42;;;;;;;11.43;6.63;;;17.50;99.90;;;;;;3059494;19;20003;-74
2022/08/21 00:42:46;;;;;;;10.75;6.13;;;17.40;99.90;;;;;;3059754;19;20011;-74
2022/08/21 00:43:47;;;;;;;14.70;6.70;;;17.50;99.90;;;;;;3062148;19;20078;-74
2022/08/21 00:44:52;;;;;;;11.35;6.60;;;17.50;99.90;;;;;;3061173;19;20018;-74
2022/08/21 00:45:55;;;;;;;9.70;6.60;;;17.40;99.90;;;;;;3060738;19;20011;-74
2022/08/21 00:46:59;;;;;;;10.95;6.50;;;17.20;99.90;;;;;;3060657;19;20011;-73
2022/08/21 00:48:01;;;;;;;10.75;6.65;;;17.50;99.90;;;;;;3059636;19;20048;-74
2022/08/21 00:49:05;;;;;;;9.95;6.50;;;17.40;99.90;;;;;;3057574;19;20031;-74
2022/08/21 00:50:08;;;;;;;14.07;6.50;;;17.40;99.90;;;;;;3058411;19;20014;-74
2022/08/21 00:51:16;;;;;;;13.00;7.32;;;17.50;99.90;;;;;;3057922;19;20021;-74
2022/08/21 00:52:22;;;;;;;12.75;7.03;;;17.40;99.90;;;;;;3058286;19;20006;-75
2022/08/21 00:53:27;;;;;;;10.38;6.50;;;17.50;99.90;;;;;;3057739;19;20030;-73
2022/08/21 00:54:30;;;;;;;10.32;6.80;;;17.50;99.90;;;;;;3058219;19;20084;-73
2022/08/21 00:55:39;;;;;;;10.13;6.20;;;17.40;99.90;;;;;;3057848;19;20010;-74
2022/08/21 00:56:41;;;;;;;11.88;7.28;;;17.30;99.90;;;;;;3057967;19;20018;-74
2022/08/21 00:57:48;;;;;;;13.27;6.57;;;17.20;99.90;;;;;;3057528;19;20022;-74
2022/08/21 00:58:51;;;;;;;12.13;6.85;;;17.20;99.90;;;;;;3057995;19;20031;-74
2022/08/21 00:59:58;;;;;;;13.77;6.68;;;17.30;99.90;;;;;;3057834;19;20011;-73
2022/08/21 01:01:03;;;;;;;12.07;7.13;;;17.20;99.90;;;;;;3060171;19;20386;-74
2022/08/21 01:02:07;;;;;;;13.75;7.10;;;17.30;99.90;;;;;;3060350;19;20400;-74
2022/08/21 01:03:14;;;;;;;15.10;7.90;;;17.20;99.90;;;;;;3061292;19;19999;-74
2022/08/21 01:04:16;;;;;;;10.70;7.13;;;17.10;99.90;;;;;;3061198;19;20023;-74
2022/08/21 01:05:20;;;;;;;13.68;7.43;;;17.10;99.90;;;;;;3060909;19;20035;-74
2022/08/21 01:06:21;;;;;;;13.27;7.60;;;17.10;99.90;;;;;;3061001;19;20010;-74
2022/08/21 01:07:25;;;;;;;12.35;7.45;;;17.10;99.90;;;;;;3060859;19;19998;-74
2022/08/21 01:08:29;;;;;;;12.73;8.00;;;17.20;99.90;;;;;;3060917;19;20350;-74
2022/08/21 01:09:33;;;;;;;15.68;7.65;;;17.00;99.90;;;;;;3060851;19;20472;-74
2022/08/21 01:10:37;;;;;;;12.00;8.40;;;17.10;99.90;;;;;;3060903;19;20006;-74
2022/08/21 01:11:43;;;;;;;12.75;7.55;;;17.10;99.90;;;;;;3060715;19;20042;-73
2022/08/21 01:12:45;;;;;;;11.55;7.57;;;17.10;99.90;;;;;;3061058;19;20345;-74
2022/08/21 01:13:52;;;;;;;12.18;7.97;;;18.80;99.90;;;;;;3060559;19;20010;-73
2022/08/21 01:14:54;;;;;;;12.77;7.68;;;17.20;99.90;;;;;;3060853;19;20374;-74
2022/08/21 01:16:04;;;;;;;15.23;7.50;;;17.00;99.90;;;;;;3059404;19;20403;-73
2022/08/21 01:17:06;;;;;;;14.55;7.75;;;17.00;99.90;;;;;;3060857;19;20014;-74
2022/08/21 01:18:13;;;;;;;14.10;7.72;;;17.00;99.90;;;;;;3059761;19;20078;-73
2022/08/21 01:19:16;;;;;;;14.18;7.32;;;16.90;99.90;;;;;;3060444;19;20011;-74
2022/08/21 01:20:20;;;;;;;16.85;8.05;;;16.90;99.90;;;;;;3060688;19;20035;-74
2022/08/21 01:21:28;;;;;;;16.02;7.68;;;17.20;99.90;;;;;;3060913;19;20007;-74
2022/08/21 01:22:30;;;;;;;15.07;7.30;;;17.00;99.90;;;;;;3060753;19;20015;-74
2022/08/21 01:23:34;;;;;;;18.45;7.68;;;17.00;99.90;;;;;;3061020;19;20035;-75
2022/08/21 01:24:35;;;;;;;16.08;7.68;;;16.90;99.90;;;;;;3060697;19;20021;-74
2022/08/21 01:25:39;;;;;;;19.52;8.73;;;16.90;99.90;;;;;;3060906;19;20007;-74
2022/08/21 01:26:42;;;;;;;17.30;7.80;;;16.80;99.90;;;;;;3060528;19;20015;-74
2022/08/21 01:27:46;;;;;;;15.95;8.15;;;17.00;99.90;;;;;;3059461;19;20006;-74
2022/08/21 01:28:55;;;;;;;22.33;10.45;;;16.90;99.90;;;;;;3060567;19;20718;-73
2022/08/21 01:30:02;;;;;;;19.20;10.07;;;16.80;99.90;;;;;;3060947;19;20007;-73
2022/08/21 01:31:07;;;;;;;16.63;8.88;;;16.90;99.90;;;;;;3060616;19;20014;-74
2022/08/21 01:32:14;;;;;;;21.90;9.63;;;16.70;99.90;;;;;;3060696;19;20485;-74
2022/08/21 01:33:16;;;;;;;19.08;9.10;;;16.70;99.90;;;;;;3060567;19;20359;-73
2022/08/21 01:34:20;;;;;;;15.70;8.93;;;16.80;99.90;;;;;;3060650;19;20013;-74
2022/08/21 01:35:22;;;;;;;17.30;8.18;;;16.70;99.90;;;;;;3060608;19;20133;-74
2022/08/21 01:36:29;;;;;;;15.00;8.55;;;16.70;99.90;;;;;;3060745;19;20368;-74
2022/08/21 01:37:30;;;;;;;14.82;8.30;;;16.60;99.90;;;;;;3060549;19;20536;-74
2022/08/21 01:38:34;;;;;;;18.60;8.48;;;16.70;99.90;;;;;;3059790;19;20030;-74
2022/08/21 01:39:36;;;;;;;17.25;8.77;;;16.60;99.90;;;;;;3060567;19;20010;-73
2022/08/21 01:40:40;;;;;;;16.98;8.27;;;16.60;99.90;;;;;;3060607;19;20002;-74
2022/08/21 01:41:42;;;;;;;17.35;7.60;;;16.80;99.90;;;;;;3060560;19;20487;-74
2022/08/21 01:42:48;;;;;;;17.15;7.95;;;16.70;99.90;;;;;;3060411;19;20110;-74
2022/08/21 01:43:50;;;;;;;15.82;8.88;;;16.70;99.90;;;;;;3061595;19;20480;-74
2022/08/21 01:44:54;;;;;;;16.63;8.02;;;16.70;99.90;;;;;;3060602;19;20036;-74
2022/08/21 01:45:55;;;;;;;15.80;7.65;;;16.80;99.90;;;;;;3060430;19;20011;-74
2022/08/21 01:47:01;;;;;;;23.15;8.90;;;16.60;99.90;;;;;;3060305;19;20026;-74
2022/08/21 01:48:03;;;;;;;18.23;9.05;;;16.70;99.90;;;;;;3060433;19;20480;-74
2022/08/21 01:49:07;;;;;;;12.15;7.57;;;17.00;99.90;;;;;;3059809;19;20007;-74
2022/08/21 01:50:14;;;;;;;14.98;7.28;;;16.70;99.90;;;;;;3060381;19;20383;-73
2022/08/21 01:51:18;;;;;;;15.13;7.68;;;16.70;99.90;;;;;;3060481;19;20024;-74
2022/08/21 01:52:21;;;;;;;19.17;7.65;;;16.60;99.90;;;;;;3060568;19;20106;-74
2022/08/21 01:53:28;;;;;;;16.58;7.68;;;16.90;99.90;;;;;;3060337;19;20010;-74
2022/08/21 01:54:29;;;;;;;17.73;7.07;;;16.70;99.90;;;;;;3060488;19;20002;-75
2022/08/21 01:55:33;;;;;;;;;;;16.90;99.90;;;;;;3061000;19;20495;-74
2022/08/21 01:56:38;;;;;;;16.13;7.32;;;16.60;99.90;;;;;;3060407;19;19923;-74
2022/08/21 01:57:42;;;;;;;14.07;7.68;;;16.70;99.90;;;;;;3060368;19;20007;-74
2022/08/21 01:58:46;;;;;;;16.33;7.30;;;16.60;99.90;;;;;;3059281;19;20539;-75
2022/08/21 01:59:50;;;;;;;14.50;7.35;;;16.60;99.90;;;;;;3060190;19;20014;-74
2022/08/21 02:00:51;;;;;;;17.88;7.03;;;16.60;99.90;;;;;;3060415;19;20010;-74
2022/08/21 02:01:56;;;;;;;12.02;6.75;;;16.70;99.90;;;;;;3060161;19;20043;-74
2022/08/21 02:02:57;;;;;;;18.00;7.50;;;16.60;99.90;;;;;;3060419;19;20002;-74
2022/08/21 02:04:02;;;;;;;13.23;7.07;;;16.70;99.90;;;;;;3060247;19;20017;-74
2022/08/21 02:05:04;;;;;;;16.17;7.22;;;16.70;99.90;;;;;;3060276;19;20027;-74
2022/08/21 02:06:09;;;;;;;17.42;7.97;;;16.50;99.90;;;;;;3060121;19;20341;-74
2022/08/21 02:07:11;;;;;;;13.68;6.90;;;16.70;99.90;;;;;;3060079;19;20014;-74
2022/08/21 02:08:17;;;;;;;13.00;6.72;;;16.70;99.90;;;;;;3060190;19;20010;-74
2022/08/21 02:09:19;;;;;;;14.77;7.38;;;16.70;99.90;;;;;;3060215;19;20011;-73
2022/08/21 02:10:26;;;;;;;16.40;7.10;;;16.60;99.90;;;;;;3059945;19;20468;-74
2022/08/21 02:11:30;;;;;;;14.77;6.93;;;16.80;99.90;;;;;;3059741;19;20010;-75
2022/08/21 02:12:32;;;;;;;12.32;7.40;;;16.70;99.90;;;;;;3058840;19;20021;-74
2022/08/21 02:13:37;;;;;;;13.32;7.40;;;16.50;99.90;;;;;;3060350;19;19998;-74
2022/08/21 02:14:38;;;;;;;16.00;7.78;;;16.50;99.90;;;;;;3059164;19;20007;-74
2022/08/21 02:15:42;;;;;;;13.95;7.38;;;16.60;99.90;;;;;;3060059;19;20021;-74
2022/08/21 02:16:44;;;;;;;12.07;7.28;;;16.70;99.90;;;;;;3060019;19;20348;-74
2022/08/21 02:17:51;;;;;;;14.82;7.25;;;16.60;99.90;;;;;;3060037;19;20007;-74
2022/08/21 02:18:52;;;;;;;14.70;8.18;;;16.50;99.90;;;;;;3058451;19;20017;-74
2022/08/21 02:19:56;;;;;;;17.02;7.38;;;16.50;99.90;;;;;;3060260;19;20353;-74
2022/08/21 02:20:57;;;;;;;12.82;7.85;;;16.50;99.90;;;;;;3060103;19;20010;-74
2022/08/21 02:22:01;;;;;;;15.07;7.78;;;16.50;99.90;;;;;;3060029;19;20014;-74
2022/08/21 02:23:03;;;;;;;16.23;7.38;;;16.50;99.90;;;;;;3059811;19;20040;-74
2022/08/21 02:24:10;;;;;;;13.70;7.82;;;16.50;99.90;;;;;;3060017;19;20007;-74
2022/08/21 02:25:12;;;;;;;14.63;7.40;;;16.40;99.90;;;;;;3059746;19;20011;-74
2022/08/21 02:26:16;;;;;;;11.00;7.30;;;16.40;99.90;;;;;;3060031;19;20073;-74
2022/08/21 02:27:17;;;;;;;12.00;6.97;;;16.40;99.90;;;;;;3059163;19;20014;-74
2022/08/21 02:28:21;;;;;;;15.20;8.35;;;16.30;99.90;;;;;;3059864;19;20007;-74
2022/08/21 02:29:22;;;;;;;12.70;7.30;;;16.40;99.90;;;;;;3059662;19;20018;-74
2022/08/21 02:30:29;;;;;;;13.07;7.70;;;16.40;99.90;;;;;;3060103;19;20006;-74
2022/08/21 02:31:31;;;;;;;15.52;7.53;;;16.40;99.90;;;;;;3059713;19;20484;-74
2022/08/21 02:32:35;;;;;;;14.20;7.53;;;16.30;99.90;;;;;;3060068;19;20014;-74
2022/08/21 02:33:36;;;;;;;12.70;6.63;;;16.50;99.90;;;;;;3059948;19;20027;-74
2022/08/21 02:34:40;;;;;;;14.68;7.43;;;16.40;99.90;;;;;;3059921;19;19999;-74
2022/08/21 02:35:43;;;;;;;13.75;7.20;;;16.40;99.90;;;;;;3059861;19;20031;-73
2022/08/21 02:36:47;;;;;;;11.70;7.20;;;16.30;99.90;;;;;;3059804;19;20036;-74
2022/08/21 02:37:51;;;;;;;14.63;7.22;;;16.40;99.90;;;;;;3059564;19;20028;-74
2022/08/21 02:38:55;;;;;;;14.82;6.68;;;16.30;99.90;;;;;;3058992;19;20006;-74
2022/08/21 02:40:00;;;;;;;12.80;7.10;;;16.40;99.90;;;;;;3059621;19;20342;-74
2022/08/21 02:41:04;;;;;;;12.82;7.30;;;16.50;99.90;;;;;;3059556;19;20045;-74
2022/08/21 02:42:06;;;;;;;12.60;6.65;;;16.10;99.90;;;;;;3059871;19;20023;-73
2022/08/21 02:43:10;;;;;;;;;;;16.30;99.90;;;;;;3060143;19;19998;-73
2022/08/21 02:44:11;;;;;;;9.48;6.40;;;16.40;99.90;;;;;;3059532;19;19926;-73
2022/08/21 02:45:17;;;;;;;12.20;5.93;;;16.20;99.90;;;;;;3059542;19;20018;-74
2022/08/21 02:46:20;;;;;;;10.50;6.63;;;16.10;99.90;;;;;;3059625;19;20361;-74
2022/08/21 02:47:23;;;;;;;12.02;6.65;;;16.50;99.90;;;;;;3059557;19;20077;-74
2022/08/21 02:48:27;;;;;;;18.25;6.95;;;16.20;99.90;;;;;;3059659;19;20085;-74
2022/08/21 02:49:31;;;;;;;12.10;7.00;;;16.30;99.90;;;;;;3059198;19;20078;-74
2022/08/21 02:50:34;;;;;;;11.90;6.13;;;16.20;99.90;;;;;;3059660;19;20010;-74
2022/08/21 02:51:38;;;;;;;14.90;6.47;;;16.10;99.90;;;;;;3059638;19;20039;-74
2022/08/21 02:52:40;;;;;;;12.15;6.68;;;16.40;99.90;;;;;;3059617;19;20003;-74
2022/08/21 02:53:43;;;;;;;;;;;16.30;99.90;;;;;;3059987;19;20009;-73
2022/08/21 02:54:45;;;;;;;11.48;6.40;;;16.20;99.90;;;;;;3059644;19;19930;-74
2022/08/21 02:55:53;;;;;;;14.65;6.15;;;16.20;99.90;;;;;;3059809;19;20078;-73
2022/08/21 02:56:54;;;;;;;10.10;6.00;;;16.00;99.90;;;;;;3059719;19;20002;-74
2022/08/21 02:58:00;;;;;;;9.32;5.82;;;16.10;99.90;;;;;;3059470;19;20640;-74
2022/08/21 02:59:02;;;;;;;11.77;6.20;;;15.90;99.90;;;;;;3058917;19;20013;-74
2022/08/21 03:00:08;;;;;;;11.60;6.50;;;16.20;99.90;;;;;;3059522;19;20003;-74
2022/08/21 03:01:11;;;;;;;14.27;6.28;;;16.10;99.90;;;;;;3059462;19;20366;-73
2022/08/21 03:02:14;;;;;;;9.32;5.50;;;16.00;99.90;;;;;;3059340;19;20384;-74
2022/08/21 03:03:16;;;;;;;8.65;5.32;;;16.00;99.90;;;;;;3059637;19;20007;-74
2022/08/21 03:04:20;;;;;;;10.75;5.80;;;16.00;99.90;;;;;;3059206;19;20016;-73
2022/08/21 03:05:22;;;;;;;10.30;5.80;;;16.20;99.90;;;;;;3059751;19;20046;-74
2022/08/21 03:06:26;;;;;;;12.38;5.68;;;15.90;99.90;;;;;;3059204;19;20011;-73
2022/08/21 03:07:27;;;;;;;12.18;5.80;;;16.00;99.90;;;;;;3059271;19;20006;-73
2022/08/21 03:08:31;;;;;;;15.07;6.03;;;16.10;99.90;;;;;;3059181;19;20549;-74
2022/08/21 03:09:35;;;;;;;11.98;5.50;;;16.90;99.90;;;;;;3059428;19;20006;-73
2022/08/21 03:10:39;;;;;;;9.32;5.57;;;16.10;99.90;;;;;;3059259;19;20020;-74
2022/08/21 03:11:46;;;;;;;15.90;6.20;;;16.00;99.90;;;;;;3059176;19;20015;-73
2022/08/21 03:12:48;;;;;;;12.15;5.80;;;16.00;99.90;;;;;;3059442;19;20039;-74
2022/08/21 03:13:52;;;;;;;14.07;5.45;;;16.10;99.90;;;;;;3059021;19;20028;-73
2022/08/21 03:14:53;;;;;;;12.35;5.95;;;16.10;99.90;;;;;;3059103;19;20017;-74
2022/08/21 03:15:58;;;;;;;11.45;6.18;;;16.00;99.90;;;;;;3059304;19;20011;-74
2022/08/21 03:16:59;;;;;;;13.15;5.78;;;16.20;99.90;;;;;;3059098;19;20031;-74
2022/08/21 03:18:05;;;;;;;13.85;6.60;;;16.00;99.90;;;;;;3059415;19;20021;-74
2022/08/21 03:19:06;;;;;;;14.82;6.65;;;15.90;99.90;;;;;;3057972;19;20014;-73
2022/08/21 03:20:12;;;;;;;14.10;6.72;;;16.00;99.90;;;;;;3059120;19;20018;-73
2022/08/21 03:21:13;;;;;;;17.25;6.50;;;16.00;99.90;;;;;;3059003;19;20484;-74
2022/08/21 03:22:17;;;;;;;15.20;6.90;;;16.00;99.90;;;;;;3059228;19;20011;-74
2022/08/21 03:23:18;;;;;;;11.88;7.35;;;15.90;99.90;;;;;;3058450;19;20481;-74
2022/08/21 03:24:22;;;;;;;17.88;7.05;;;15.70;99.90;;;;;;3059168;19;20021;-74
2022/08/21 03:25:25;;;;;;;14.93;7.22;;;15.70;99.90;;;;;;3059283;19;20010;-75
2022/08/21 03:26:29;;;;;;;12.77;7.22;;;15.90;99.90;;;;;;3059206;19;20035;-73
2022/08/21 03:27:33;;;;;;;16.60;8.00;;;15.90;99.90;;;;;;3058296;19;20015;-74
2022/08/21 03:28:37;;;;;;;14.10;7.97;;;15.90;99.90;;;;;;3059082;19;20014;-73
2022/08/21 03:29:39;;;;;;;15.27;8.38;;;15.90;99.90;;;;;;3058905;19;20476;-74
2022/08/21 03:30:43;;;;;;;13.43;8.60;;;15.90;99.90;;;;;;3058989;19;20476;-73
2022/08/21 03:31:45;;;;;;;19.30;9.50;;;15.80;99.90;;;;;;3058873;19;20027;-74
2022/08/21 03:32:48;;;;;;;15.10;9.95;;;15.80;99.90;;;;;;3059122;19;20006;-73
2022/08/21 03:33:54;;;;;;;14.48;9.93;;;15.80;99.90;;;;;;3059177;19;20035;-73
2022/08/21 03:34:59;;;;;;;17.15;10.88;;;15.70;99.90;;;;;;3058977;19;20027;-73
2022/08/21 03:36:04;;;;;;;19.52;10.85;;;15.80;99.90;;;;;;3058899;19;20014;-74
2022/08/21 03:37:10;;;;;;;20.92;11.55;;;15.70;99.90;;;;;;3059055;19;20013;-73
2022/08/21 03:38:12;;;;;;;22.85;12.90;;;15.70;99.90;;;;;;3058967;19;20015;-73
2022/08/21 03:39:16;;;;;;;17.92;12.38;;;15.80;99.90;;;;;;3058275;19;20021;-73
2022/08/21 03:40:20;;;;;;;23.33;14.63;;;15.80;99.90;;;;;;3058658;19;20011;-73
2022/08/21 03:41:24;;;;;;;20.80;14.02;;;15.60;99.90;;;;;;3059355;19;20002;-73
2022/08/21 03:42:25;;;;;;;25.92;15.48;;;15.70;99.90;;;;;;3058647;19;20021;-73
2022/08/21 03:43:32;;;;;;;28.35;15.98;;;15.60;99.90;;;;;;3059557;19;20047;-73
2022/08/21 03:44:34;;;;;;;23.15;14.73;;;15.60;99.90;;;;;;3058749;19;20014;-73
2022/08/21 03:45:37;;;;;;;;;;;15.70;99.90;;;;;;3059395;19;20019;-73
2022/08/21 03:46:39;;;;;;;20.38;13.57;;;15.50;99.90;;;;;;3058672;19;19918;-73
2022/08/21 03:47:53;;;;;;;23.13;13.38;;;15.50;99.90;;;;;;3058763;19;20011;-73
2022/08/21 03:48:57;;;;;;;22.17;11.90;;;15.60;99.90;;;;;;3058390;19;20378;-73
2022/08/21 03:49:59;;;;;;;19.45;11.25;;;15.60;99.90;;;;;;3058822;19;20014;-74
2022/08/21 03:51:02;;;;;;;;;;;15.60;99.90;;;;;;3059350;19;20010;-73
2022/08/21 03:52:04;;;;;;;18.02;11.35;;;15.50;99.90;;;;;;3058636;19;19918;-73
2022/08/21 03:53:09;;;;;;;17.58;10.60;;;15.30;99.90;;;;;;3058861;19;20006;-73
2022/08/21 03:54:10;;;;;;;15.98;10.43;;;15.50;99.90;;;;;;3058491;19;20468;-73
2022/08/21 03:55:14;;;;;;;18.58;10.23;;;15.60;99.90;;;;;;3058649;19;20380;-73
2022/08/21 03:56:16;;;;;;;15.93;9.70;;;15.50;99.90;;;;;;3058641;19;20010;-74
2022/08/21 03:57:21;;;;;;;15.80;9.52;;;15.50;99.90;;;;;;3058723;19;20010;-73
2022/08/21 03:58:25;;;;;;;14.93;9.15;;;15.50;99.90;;;;;;3058539;19;20003;-73
2022/08/21 03:59:31;;;;;;;18.92;9.35;;;16.00;99.90;;;;;;3057869;19;20010;-73
2022/08/21 04:00:33;;;;;;;18.45;9.27;;;15.70;99.90;;;;;;3058601;19;20007;-73
2022/08/21 04:01:37;;;;;;;16.83;8.82;;;15.50;99.90;;;;;;3058843;19;20696;-73
2022/08/21 04:02:38;;;;;;;15.00;8.63;;;15.40;99.90;;;;;;3058582;19;20602;-74
2022/08/21 04:03:42;;;;;;;14.95;8.38;;;15.60;99.90;;;;;;3058666;19;20409;-73
2022/08/21 04:04:43;;;;;;;16.27;8.88;;;15.50;99.90;;;;;;3058487;19;20236;-72
2022/08/21 04:05:48;;;;;;;16.00;8.75;;;15.50;99.90;;;;;;3058833;19;20414;-73
2022/08/21 04:06:49;;;;;;;12.15;8.48;;;15.80;99.90;;;;;;3058567;19;20014;-73
2022/08/21 04:07:53;;;;;;;15.68;8.25;;;15.60;99.90;;;;;;3058771;19;20023;-73
2022/08/21 04:08:57;;;;;;;12.88;8.27;;;15.40;99.90;;;;;;3058349;19;20011;-73
2022/08/21 04:09:59;;;;;;;17.05;9.95;;;15.50;99.90;;;;;;3058486;19;20003;-74
2022/08/21 04:11:03;;;;;;;14.77;7.65;;;15.40;99.90;;;;;;3058705;19;20037;-74
2022/08/21 04:12:05;;;;;;;15.73;8.55;;;15.40;99.90;;;;;;3058499;19;20014;-73
2022/08/21 04:13:11;;;;;;;18.65;8.73;;;15.40;99.90;;;;;;3058574;19;20096;-73
2022/08/21 04:14:13;;;;;;;16.15;8.65;;;15.40;99.90;;;;;;3058053;19;20019;-75
2022/08/21 04:15:20;;;;;;;17.17;9.02;;;15.40;99.90;;;;;;3058235;19;20018;-73
2022/08/21 04:16:23;;;;;;;17.52;9.07;;;15.40;99.90;;;;;;3058520;19;20006;-73
2022/08/21 04:17:26;;;;;;;17.27;9.13;;;15.30;99.90;;;;;;3058227;19;20006;-73
2022/08/21 04:18:28;;;;;;;15.82;9.38;;;15.50;99.90;;;;;;3058539;19;20500;-73
2022/08/21 04:19:31;;;;;;;14.98;8.88;;;15.50;99.90;;;;;;3057275;19;20377;-74
2022/08/21 04:20:34;;;;;;;18.08;9.32;;;16.10;99.90;;;;;;3058518;19;20003;-73
2022/08/21 04:21:38;;;;;;;14.80;8.50;;;15.40;99.90;;;;;;3058260;19;20018;-73
2022/08/21 04:22:39;;;;;;;17.38;10.05;;;15.40;99.90;;;;;;3058275;19;20002;-74
2022/08/21 04:23:43;;;;;;;18.95;8.73;;;15.50;99.90;;;;;;3058251;19;20011;-73
2022/08/21 04:24:45;;;;;;;21.90;9.23;;;15.40;99.90;;;;;;3058335;19;20003;-74
2022/08/21 04:25:48;;;;;;;14.20;8.73;;;16.20;99.90;;;;;;3058264;19;20018;-72
2022/08/21 04:26:50;;;;;;;18.67;9.57;;;15.20;99.90;;;;;;3058258;19;20010;-73
2022/08/21 04:27:54;;;;;;;17.45;9.35;;;15.30;99.90;;;;;;3058121;19;20031;-73
2022/08/21 04:28:57;;;;;;;15.68;8.75;;;15.70;99.90;;;;;;3058361;19;20475;-73
2022/08/21 04:30:01;;;;;;;20.30;9.35;;;15.30;99.90;;;;;;3058051;19;20377;-73
2022/08/21 04:31:04;;;;;;;16.30;8.80;;;15.30;99.90;;;;;;3058286;19;20011;-73
2022/08/21 04:32:09;;;;;;;17.20;8.60;;;15.10;99.90;;;;;;3058050;19;20015;-73
2022/08/21 04:33:10;;;;;;;20.83;8.88;;;15.40;99.90;;;;;;3058235;19;20338;-73
2022/08/21 04:34:14;;;;;;;20.35;8.57;;;15.30;99.90;;;;;;3058191;19;20022;-73
2022/08/21 04:35:17;;;;;;;18.23;8.13;;;15.40;99.90;;;;;;3056882;19;20007;-73
2022/08/21 04:36:21;;;;;;;15.43;8.57;;;15.30;99.90;;;;;;3058002;19;20481;-73
2022/08/21 04:37:26;;;;;;;17.40;7.57;;;15.20;99.90;;;;;;3058466;19;20472;-73
2022/08/21 04:38:31;;;;;;;17.77;8.23;;;15.80;99.90;;;;;;3058072;19;20393;-72
2022/08/21 04:39:32;;;;;;;16.35;7.90;;;15.30;99.90;;;;;;3057796;19;20015;-73
2022/08/21 04:40:36;;;;;;;15.93;7.95;;;15.20;99.90;;;;;;3057809;19;20019;-73
2022/08/21 04:41:37;;;;;;;16.55;8.23;;;15.20;99.90;;;;;;3058232;19;20006;-71
2022/08/21 04:42:48;;;;;;;15.85;8.15;;;15.30;99.90;;;;;;3058180;19;20011;-72
2022/08/21 04:43:49;;;;;;;14.30;7.45;;;15.40;99.90;;;;;;3059722;19;20039;-73
2022/08/21 04:44:54;;;;;;;15.90;8.07;;;15.40;99.90;;;;;;3057911;19;20010;-72
2022/08/21 04:46:00;;;;;;;14.52;7.93;;;15.40;99.90;;;;;;3058402;19;20010;-73
2022/08/21 04:47:05;;;;;;;14.63;7.80;;;15.10;99.90;;;;;;3058069;19;20007;-73
2022/08/21 04:48:12;;;;;;;12.68;7.35;;;15.30;99.90;;;;;;3057782;19;20015;-72
2022/08/21 04:49:14;;;;;;;14.10;7.55;;;15.70;99.90;;;;;;3057882;19;20924;-73
2022/08/21 04:50:18;;;;;;;12.07;7.13;;;15.30;99.90;;;;;;3057892;19;20007;-73
2022/08/21 04:51:24;;;;;;;13.50;7.88;;;15.40;99.90;;;;;;3058001;19;20472;-73
2022/08/21 04:52:28;;;;;;;13.02;8.23;;;15.30;99.90;;;;;;3057830;19;20040;-73
2022/08/21 04:53:33;;;;;;;15.50;7.97;;;15.30;99.90;;;;;;3058348;19;20022;-73
2022/08/21 04:54:37;;;;;;;12.90;7.90;;;15.20;99.90;;;;;;3057969;19;20058;-73
2022/08/21 04:55:41;;;;;;;16.33;7.53;;;15.30;99.90;;;;;;3058165;19;20014;-74
2022/08/21 04:56:49;;;;;;;12.55;7.68;;;15.10;99.90;;;;;;3057847;19;20383;-73
2022/08/21 04:57:53;;;;;;;14.32;8.00;;;15.20;99.90;;;;;;3057972;19;20031;-73
2022/08/21 04:58:59;;;;;;;11.35;7.80;;;15.20;99.90;;;;;;3057978;19;20349;-73
2022/08/21 05:00:00;;;;;;;11.30;7.70;;;15.30;99.90;;;;;;3057144;19;20002;-72
2022/08/21 05:01:06;;;;;;;13.60;8.05;;;15.20;99.90;;;;;;3057771;19;20032;-72
2022/08/21 05:02:10;;;;;;;11.73;7.82;;;15.40;99.90;;;;;;3057845;19;20075;-73
2022/08/21 05:03:16;;;;;;;14.15;7.80;;;15.10;99.90;;;;;;3057925;19;20011;-73
2022/08/21 05:04:22;;;;;;;15.18;7.40;;;15.40;99.90;;;;;;3057927;19;20027;-73
2022/08/21 05:05:28;;;;;;;11.82;7.07;;;15.20;99.90;;;;;;3057835;19;20014;-72
2022/08/21 05:06:36;;;;;;;11.80;6.95;;;15.20;99.90;;;;;;3057920;19;20051;-73
2022/08/21 05:07:38;;;;;;;10.88;6.82;;;15.20;99.90;;;;;;3057597;19;20446;-73
2022/08/21 05:08:43;;;;;;;13.93;7.50;;;15.30;99.90;;;;;;3057983;19;20348;-73
2022/08/21 05:09:45;;;;;;;13.30;7.35;;;15.20;99.90;;;;;;3057657;19;20007;-73
2022/08/21 05:10:49;;;;;;;13.95;7.68;;;15.30;99.90;;;;;;3057681;19;20043;-73
2022/08/21 05:11:51;;;;;;;13.95;7.60;;;15.10;99.90;;;;;;3057687;19;20031;-74
2022/08/21 05:12:55;;;;;;;11.25;6.50;;;15.30;99.90;;;;;;3057830;19;20006;-73
2022/08/21 05:13:58;;;;;;;14.18;7.07;;;15.20;99.90;;;;;;3057300;19;20484;-73
2022/08/21 05:15:02;;;;;;;12.35;7.43;;;15.30;99.90;;;;;;3057866;19;20021;-73
2022/08/21 05:16:03;;;;;;;14.93;7.15;;;15.10;99.90;;;;;;3057807;19;20037;-73
2022/08/21 05:17:07;;;;;;;;;;;15.20;99.90;;;;;;3058622;19;20007;-73
2022/08/21 05:18:11;;;;;;;11.63;7.15;;;15.30;99.90;;;;;;3057629;19;20334;-73
2022/08/21 05:19:15;;;;;;;13.07;6.60;;;15.20;99.90;;;;;;3057215;19;20014;-73
2022/08/21 05:20:16;;;;;;;13.63;7.32;;;15.20;99.90;;;;;;3057759;19;20011;-72
2022/08/21 05:21:20;;;;;;;13.63;7.15;;;15.30;99.90;;;;;;3057968;19;20006;-73
2022/08/21 05:22:24;;;;;;;14.95;7.55;;;15.50;99.90;;;;;;3057673;19;20025;-73
2022/08/21 05:23:28;;;;;;;12.45;6.63;;;15.20;99.90;;;;;;3057591;19;20487;-73
2022/08/21 05:24:29;;;;;;;12.07;7.10;;;15.20;99.90;;;;;;3057540;19;20011;-73
2022/08/21 05:25:33;;;;;;;14.88;6.78;;;15.90;99.90;;;;;;3057818;19;20099;-74
2022/08/21 05:26:36;;;;;;;14.02;7.15;;;15.10;99.90;;;;;;3057497;19;20018;-73
2022/08/21 05:27:40;;;;;;;10.95;6.70;;;15.70;99.90;;;;;;3056926;19;20074;-73